Miami, Florida
Traffic Map
Current Weather Conditions
Miami, Florida
Clear
Clear
81°
Feels Like: 84°
Wind Chill: 81° Ceiling: Unl
Heat Index: 84° Visibility: 10mi
Dew Point: 69° Wind: 5mph
Humidity: 67% Direction: 330° (NNW)
Pressure: 29.97in Gusts: 0mph
Raw Report DataKMIA 221353Z 33004KT 10SM CLR 27/21 A2997 RMK AO2 SLP150 T02720206
Traffic Incident Summary
Active as of:
Severity:
Category:
InformationThere was an issue retrieving the traffic information for this location. Please try a different location or try again shortly.
Advertisements
Track Severe Weather on mobile